sensor_id;sensor_type;location;lat;lon;timestamp;P1;durP1;ratioP1;P2;durP2;ratioP2
7795;SDS011;3942;51.518;6.912;2022-11-15T00:02:13;15.23;;;10.02;;
7795;SDS011;3942;51.518;6.912;2022-11-15T00:07:15;15.70;;;10.15;;
7795;SDS011;3942;51.518;6.912;2022-11-15T00:12:17;12.70;;;9.30;;
7795;SDS011;3942;51.518;6.912;2022-11-15T00:17:21;15.05;;;10.13;;
7795;SDS011;3942;51.518;6.912;2022-11-15T00:22:22;19.15;;;11.65;;
7795;SDS011;3942;51.518;6.912;2022-11-15T00:27:25;15.13;;;8.65;;
7795;SDS011;3942;51.518;6.912;2022-11-15T00:32:31;17.65;;;9.05;;
7795;SDS011;3942;51.518;6.912;2022-11-15T00:37:34;12.65;;;8.52;;
7795;SDS011;3942;51.518;6.912;2022-11-15T00:42:36;15.85;;;8.82;;
7795;SDS011;3942;51.518;6.912;2022-11-15T00:47:39;13.63;;;8.23;;
7795;SDS011;3942;51.518;6.912;2022-11-15T00:52:41;13.27;;;7.97;;
7795;SDS011;3942;51.518;6.912;2022-11-15T00:57:44;12.98;;;8.13;;
7795;SDS011;3942;51.518;6.912;2022-11-15T01:02:47;13.75;;;8.35;;
7795;SDS011;3942;51.518;6.912;2022-11-15T01:07:51;13.30;;;8.55;;
7795;SDS011;3942;51.518;6.912;2022-11-15T01:12:53;15.15;;;8.75;;
7795;SDS011;3942;51.518;6.912;2022-11-15T01:17:56;17.40;;;9.70;;
7795;SDS011;3942;51.518;6.912;2022-11-15T01:22:59;14.90;;;8.15;;
7795;SDS011;3942;51.518;6.912;2022-11-15T01:28:01;13.68;;;7.88;;
7795;SDS011;3942;51.518;6.912;2022-11-15T01:33:04;11.68;;;7.28;;
7795;SDS011;3942;51.518;6.912;2022-11-15T01:43:46;13.27;;;8.43;;
7795;SDS011;3942;51.518;6.912;2022-11-15T01:48:50;13.90;;;8.18;;
7795;SDS011;3942;51.518;6.912;2022-11-15T01:53:54;11.27;;;7.95;;
7795;SDS011;3942;51.518;6.912;2022-11-15T01:59:00;11.23;;;7.72;;
7795;SDS011;3942;51.518;6.912;2022-11-15T02:04:07;11.48;;;7.13;;
7795;SDS011;3942;51.518;6.912;2022-11-15T02:09:13;11.90;;;8.07;;
7795;SDS011;3942;51.518;6.912;2022-11-15T02:14:16;12.30;;;6.95;;
7795;SDS011;3942;51.518;6.912;2022-11-15T02:19:26;11.45;;;6.95;;
7795;SDS011;3942;51.518;6.912;2022-11-15T02:24:47;9.80;;;6.20;;
7795;SDS011;3942;51.518;6.912;2022-11-15T02:30:02;10.10;;;5.97;;
7795;SDS011;3942;51.518;6.912;2022-11-15T02:35:19;18.52;;;6.97;;
7795;SDS011;3942;51.518;6.912;2022-11-15T02:40:27;10.57;;;6.57;;
7795;SDS011;3942;51.518;6.912;2022-11-15T02:45:32;10.35;;;6.43;;
7795;SDS011;3942;51.518;6.912;2022-11-15T02:50:37;13.90;;;6.13;;
7795;SDS011;3942;51.518;6.912;2022-11-15T02:55:40;11.60;;;7.50;;
7795;SDS011;3942;51.518;6.912;2022-11-15T03:00:47;12.02;;;7.10;;
7795;SDS011;3942;51.518;6.912;2022-11-15T03:05:53;12.70;;;7.03;;
7795;SDS011;3942;51.518;6.912;2022-11-15T03:11:07;11.90;;;7.68;;
7795;SDS011;3942;51.518;6.912;2022-11-15T03:16:14;11.48;;;6.05;;
7795;SDS011;3942;51.518;6.912;2022-11-15T03:21:17;15.93;;;7.63;;
7795;SDS011;3942;51.518;6.912;2022-11-15T03:26:21;11.38;;;7.18;;
7795;SDS011;3942;51.518;6.912;2022-11-15T03:31:28;12.38;;;6.93;;
7795;SDS011;3942;51.518;6.912;2022-11-15T03:36:47;11.07;;;7.00;;
7795;SDS011;3942;51.518;6.912;2022-11-15T03:41:52;13.07;;;7.55;;
7795;SDS011;3942;51.518;6.912;2022-11-15T03:47:00;13.40;;;7.53;;
7795;SDS011;3942;51.518;6.912;2022-11-15T03:52:05;10.63;;;7.25;;
7795;SDS011;3942;51.518;6.912;2022-11-15T03:57:07;11.40;;;7.32;;
7795;SDS011;3942;51.518;6.912;2022-11-15T04:02:10;10.32;;;6.60;;
7795;SDS011;3942;51.518;6.912;2022-11-15T04:07:12;12.38;;;6.20;;
7795;SDS011;3942;51.518;6.912;2022-11-15T04:12:15;13.20;;;6.57;;
7795;SDS011;3942;51.518;6.912;2022-11-15T04:17:31;8.15;;;5.80;;
7795;SDS011;3942;51.518;6.912;2022-11-15T04:22:34;9.98;;;5.82;;
7795;SDS011;3942;51.518;6.912;2022-11-15T04:27:53;10.60;;;5.90;;
7795;SDS011;3942;51.518;6.912;2022-11-15T04:32:56;8.38;;;5.82;;
7795;SDS011;3942;51.518;6.912;2022-11-15T04:37:58;11.32;;;5.80;;
7795;SDS011;3942;51.518;6.912;2022-11-15T04:43:02;7.82;;;5.00;;
7795;SDS011;3942;51.518;6.912;2022-11-15T04:48:06;12.13;;;6.38;;
7795;SDS011;3942;51.518;6.912;2022-11-15T04:53:08;8.63;;;5.13;;
7795;SDS011;3942;51.518;6.912;2022-11-15T04:58:10;8.93;;;5.38;;
7795;SDS011;3942;51.518;6.912;2022-11-15T05:03:13;10.60;;;6.18;;
7795;SDS011;3942;51.518;6.912;2022-11-15T05:08:33;8.00;;;5.32;;
7795;SDS011;3942;51.518;6.912;2022-11-15T05:13:35;10.05;;;5.88;;
7795;SDS011;3942;51.518;6.912;2022-11-15T05:18:38;10.70;;;5.22;;
7795;SDS011;3942;51.518;6.912;2022-11-15T05:23:41;9.52;;;5.75;;
7795;SDS011;3942;51.518;6.912;2022-11-15T05:28:43;8.77;;;5.32;;
7795;SDS011;3942;51.518;6.912;2022-11-15T05:33:47;8.30;;;5.50;;
7795;SDS011;3942;51.518;6.912;2022-11-15T05:38:50;7.68;;;5.03;;
7795;SDS011;3942;51.518;6.912;2022-11-15T05:43:52;8.90;;;5.53;;
7795;SDS011;3942;51.518;6.912;2022-11-15T05:48:56;10.68;;;5.85;;
7795;SDS011;3942;51.518;6.912;2022-11-15T05:53:59;8.68;;;6.47;;
7795;SDS011;3942;51.518;6.912;2022-11-15T05:59:02;9.73;;;6.07;;
7795;SDS011;3942;51.518;6.912;2022-11-15T06:04:06;14.02;;;7.05;;
7795;SDS011;3942;51.518;6.912;2022-11-15T06:09:08;10.45;;;7.03;;
7795;SDS011;3942;51.518;6.912;2022-11-15T06:14:10;9.63;;;6.50;;
7795;SDS011;3942;51.518;6.912;2022-11-15T06:19:13;9.77;;;6.60;;
7795;SDS011;3942;51.518;6.912;2022-11-15T06:24:15;12.77;;;7.18;;
7795;SDS011;3942;51.518;6.912;2022-11-15T06:29:17;8.65;;;6.65;;
7795;SDS011;3942;51.518;6.912;2022-11-15T06:34:21;12.73;;;6.68;;
7795;SDS011;3942;51.518;6.912;2022-11-15T06:39:23;11.32;;;7.43;;
7795;SDS011;3942;51.518;6.912;2022-11-15T06:44:25;8.25;;;6.35;;
7795;SDS011;3942;51.518;6.912;2022-11-15T06:49:28;9.35;;;5.88;;
7795;SDS011;3942;51.518;6.912;2022-11-15T06:54:30;7.30;;;5.57;;
7795;SDS011;3942;51.518;6.912;2022-11-15T06:59:32;7.70;;;4.80;;
7795;SDS011;3942;51.518;6.912;2022-11-15T07:04:35;9.82;;;4.75;;
7795;SDS011;3942;51.518;6.912;2022-11-15T07:09:37;5.97;;;4.32;;
7795;SDS011;3942;51.518;6.912;2022-11-15T07:14:39;6.50;;;4.15;;
7795;SDS011;3942;51.518;6.912;2022-11-15T07:19:43;12.85;;;6.80;;
7795;SDS011;3942;51.518;6.912;2022-11-15T07:24:45;7.65;;;4.05;;
7795;SDS011;3942;51.518;6.912;2022-11-15T07:29:47;5.00;;;3.92;;
7795;SDS011;3942;51.518;6.912;2022-11-15T07:34:51;6.40;;;3.70;;
7795;SDS011;3942;51.518;6.912;2022-11-15T07:39:53;5.30;;;3.33;;
7795;SDS011;3942;51.518;6.912;2022-11-15T07:44:55;4.60;;;3.10;;
7795;SDS011;3942;51.518;6.912;2022-11-15T07:49:58;5.72;;;3.20;;
7795;SDS011;3942;51.518;6.912;2022-11-15T07:55:00;6.60;;;3.47;;
7795;SDS011;3942;51.518;6.912;2022-11-15T08:00:03;4.40;;;2.90;;
7795;SDS011;3942;51.518;6.912;2022-11-15T08:05:07;7.93;;;3.25;;
7795;SDS011;3942;51.518;6.912;2022-11-15T08:10:09;4.47;;;2.42;;
7795;SDS011;3942;51.518;6.912;2022-11-15T08:15:12;3.78;;;3.03;;
7795;SDS011;3942;51.518;6.912;2022-11-15T08:20:15;5.75;;;3.25;;
7795;SDS011;3942;51.518;6.912;2022-11-15T08:25:19;6.00;;;2.75;;
7795;SDS011;3942;51.518;6.912;2022-11-15T08:30:21;5.25;;;2.47;;
7795;SDS011;3942;51.518;6.912;2022-11-15T08:35:25;3.38;;;2.10;;
7795;SDS011;3942;51.518;6.912;2022-11-15T08:40:27;5.50;;;2.25;;
7795;SDS011;3942;51.518;6.912;2022-11-15T08:45:29;4.07;;;2.58;;
7795;SDS011;3942;51.518;6.912;2022-11-15T08:50:33;6.88;;;3.72;;
7795;SDS011;3942;51.518;6.912;2022-11-15T08:55:35;4.68;;;2.20;;
7795;SDS011;3942;51.518;6.912;2022-11-15T09:00:38;5.40;;;1.80;;
7795;SDS011;3942;51.518;6.912;2022-11-15T09:05:41;5.82;;;1.63;;
7795;SDS011;3942;51.518;6.912;2022-11-15T09:10:43;4.85;;;2.22;;
7795;SDS011;3942;51.518;6.912;2022-11-15T09:15:46;7.28;;;3.13;;
7795;SDS011;3942;51.518;6.912;2022-11-15T09:20:49;3.90;;;2.33;;
7795;SDS011;3942;51.518;6.912;2022-11-15T09:25:51;3.17;;;1.95;;
7795;SDS011;3942;51.518;6.912;2022-11-15T09:30:55;10.93;;;5.80;;
7795;SDS011;3942;51.518;6.912;2022-11-15T09:36:00;6.65;;;4.25;;
7795;SDS011;3942;51.518;6.912;2022-11-15T09:41:23;4.35;;;3.17;;
7795;SDS011;3942;51.518;6.912;2022-11-15T09:46:29;3.90;;;2.80;;
7795;SDS011;3942;51.518;6.912;2022-11-15T09:51:39;3.67;;;2.88;;
7795;SDS011;3942;51.518;6.912;2022-11-15T09:56:46;4.38;;;2.67;;
7795;SDS011;3942;51.518;6.912;2022-11-15T10:01:51;4.50;;;2.00;;
7795;SDS011;3942;51.518;6.912;2022-11-15T10:06:58;3.63;;;2.20;;
7795;SDS011;3942;51.518;6.912;2022-11-15T10:12:06;4.70;;;1.90;;
7795;SDS011;3942;51.518;6.912;2022-11-15T10:17:21;4.35;;;1.90;;
7795;SDS011;3942;51.518;6.912;2022-11-15T10:22:31;2.72;;;1.85;;
7795;SDS011;3942;51.518;6.912;2022-11-15T10:27:38;5.68;;;1.85;;
7795;SDS011;3942;51.518;6.912;2022-11-15T10:32:42;3.90;;;1.77;;
7795;SDS011;3942;51.518;6.912;2022-11-15T10:37:47;2.92;;;1.63;;
7795;SDS011;3942;51.518;6.912;2022-11-15T10:43:03;6.00;;;2.10;;
7795;SDS011;3942;51.518;6.912;2022-11-15T10:48:23;3.23;;;1.33;;
7795;SDS011;3942;51.518;6.912;2022-11-15T10:53:31;4.72;;;2.22;;
7795;SDS011;3942;51.518;6.912;2022-11-15T10:58:39;2.75;;;1.45;;
7795;SDS011;3942;51.518;6.912;2022-11-15T11:03:42;7.68;;;1.60;;
7795;SDS011;3942;51.518;6.912;2022-11-15T11:08:54;4.38;;;1.90;;
7795;SDS011;3942;51.518;6.912;2022-11-15T11:13:59;4.55;;;1.85;;
7795;SDS011;3942;51.518;6.912;2022-11-15T11:19:17;3.92;;;1.40;;
7795;SDS011;3942;51.518;6.912;2022-11-15T11:24:24;2.90;;;1.23;;
7795;SDS011;3942;51.518;6.912;2022-11-15T11:34:43;4.40;;;1.80;;
7795;SDS011;3942;51.518;6.912;2022-11-15T11:39:51;1.77;;;1.10;;
7795;SDS011;3942;51.518;6.912;2022-11-15T11:45:05;4.75;;;1.45;;
7795;SDS011;3942;51.518;6.912;2022-11-15T11:50:14;3.30;;;1.55;;
7795;SDS011;3942;51.518;6.912;2022-11-15T11:55:20;4.53;;;1.23;;
7795;SDS011;3942;51.518;6.912;2022-11-15T12:00:25;1.90;;;1.10;;
7795;SDS011;3942;51.518;6.912;2022-11-15T12:05:29;3.78;;;1.10;;
7795;SDS011;3942;51.518;6.912;2022-11-15T12:15:41;3.55;;;1.25;;
7795;SDS011;3942;51.518;6.912;2022-11-15T12:20:51;2.45;;;1.08;;
7795;SDS011;3942;51.518;6.912;2022-11-15T12:26:01;5.45;;;1.17;;
7795;SDS011;3942;51.518;6.912;2022-11-15T12:31:10;5.30;;;1.55;;
7795;SDS011;3942;51.518;6.912;2022-11-15T12:36:29;1.70;;;0.98;;
7795;SDS011;3942;51.518;6.912;2022-11-15T12:52:06;2.75;;;1.17;;
7795;SDS011;3942;51.518;6.912;2022-11-15T12:57:27;7.30;;;2.00;;
7795;SDS011;3942;51.518;6.912;2022-11-15T13:02:35;4.20;;;1.60;;
7795;SDS011;3942;51.518;6.912;2022-11-15T13:07:57;4.35;;;1.20;;
7795;SDS011;3942;51.518;6.912;2022-11-15T13:13:00;2.90;;;1.17;;
7795;SDS011;3942;51.518;6.912;2022-11-15T13:23:26;3.00;;;1.20;;
7795;SDS011;3942;51.518;6.912;2022-11-15T13:28:31;12.90;;;8.18;;
7795;SDS011;3942;51.518;6.912;2022-11-15T13:33:34;5.13;;;1.98;;
7795;SDS011;3942;51.518;6.912;2022-11-15T13:38:39;6.68;;;2.78;;
7795;SDS011;3942;51.518;6.912;2022-11-15T13:43:41;4.88;;;1.85;;
7795;SDS011;3942;51.518;6.912;2022-11-15T13:48:44;3.80;;;1.70;;
7795;SDS011;3942;51.518;6.912;2022-11-15T13:53:50;9.30;;;2.17;;
7795;SDS011;3942;51.518;6.912;2022-11-15T13:58:54;4.38;;;1.98;;
7795;SDS011;3942;51.518;6.912;2022-11-15T14:03:56;3.50;;;1.38;;
7795;SDS011;3942;51.518;6.912;2022-11-15T14:09:23;5.70;;;1.20;;
7795;SDS011;3942;51.518;6.912;2022-11-15T14:14:43;8.65;;;1.20;;
7795;SDS011;3942;51.518;6.912;2022-11-15T14:19:46;8.73;;;1.52;;
7795;SDS011;3942;51.518;6.912;2022-11-15T14:30:17;3.92;;;2.20;;
7795;SDS011;3942;51.518;6.912;2022-11-15T14:35:20;40.50;;;22.70;;
7795;SDS011;3942;51.518;6.912;2022-11-15T14:40:23;2.28;;;1.17;;
7795;SDS011;3942;51.518;6.912;2022-11-15T14:45:26;5.85;;;1.65;;
7795;SDS011;3942;51.518;6.912;2022-11-15T14:50:28;5.80;;;1.67;;
7795;SDS011;3942;51.518;6.912;2022-11-15T14:55:32;2.97;;;1.40;;
7795;SDS011;3942;51.518;6.912;2022-11-15T15:00:38;6.28;;;3.35;;
7795;SDS011;3942;51.518;6.912;2022-11-15T15:05:41;9.07;;;1.75;;
7795;SDS011;3942;51.518;6.912;2022-11-15T15:10:44;5.65;;;1.80;;
7795;SDS011;3942;51.518;6.912;2022-11-15T15:15:48;3.55;;;1.50;;
7795;SDS011;3942;51.518;6.912;2022-11-15T15:20:53;7.97;;;2.17;;
7795;SDS011;3942;51.518;6.912;2022-11-15T15:25:56;5.13;;;2.20;;
7795;SDS011;3942;51.518;6.912;2022-11-15T15:31:00;3.88;;;1.85;;
7795;SDS011;3942;51.518;6.912;2022-11-15T15:36:03;5.20;;;2.30;;
7795;SDS011;3942;51.518;6.912;2022-11-15T15:41:07;4.78;;;2.20;;
7795;SDS011;3942;51.518;6.912;2022-11-15T15:46:12;6.03;;;2.50;;
7795;SDS011;3942;51.518;6.912;2022-11-15T15:51:14;4.88;;;2.03;;
7795;SDS011;3942;51.518;6.912;2022-11-15T15:56:16;3.72;;;2.38;;
7795;SDS011;3942;51.518;6.912;2022-11-15T16:01:20;4.95;;;2.55;;
7795;SDS011;3942;51.518;6.912;2022-11-15T16:11:40;3.87;;;2.40;;
7795;SDS011;3942;51.518;6.912;2022-11-15T16:16:43;4.60;;;2.35;;
7795;SDS011;3942;51.518;6.912;2022-11-15T16:21:45;6.60;;;2.70;;
7795;SDS011;3942;51.518;6.912;2022-11-15T16:26:48;6.70;;;3.35;;
7795;SDS011;3942;51.518;6.912;2022-11-15T16:31:53;4.53;;;2.40;;
7795;SDS011;3942;51.518;6.912;2022-11-15T16:36:55;3.13;;;2.22;;
7795;SDS011;3942;51.518;6.912;2022-11-15T16:41:58;6.63;;;2.30;;
7795;SDS011;3942;51.518;6.912;2022-11-15T16:47:03;4.18;;;2.20;;
7795;SDS011;3942;51.518;6.912;2022-11-15T16:52:05;3.95;;;2.13;;
7795;SDS011;3942;51.518;6.912;2022-11-15T16:57:08;4.68;;;2.72;;
7795;SDS011;3942;51.518;6.912;2022-11-15T17:02:12;5.60;;;2.50;;
7795;SDS011;3942;51.518;6.912;2022-11-15T17:07:16;4.25;;;2.80;;
7795;SDS011;3942;51.518;6.912;2022-11-15T17:12:18;4.35;;;2.40;;
7795;SDS011;3942;51.518;6.912;2022-11-15T17:17:21;5.43;;;2.30;;
7795;SDS011;3942;51.518;6.912;2022-11-15T17:22:25;5.00;;;2.75;;
7795;SDS011;3942;51.518;6.912;2022-11-15T17:27:27;4.82;;;2.75;;
7795;SDS011;3942;51.518;6.912;2022-11-15T17:32:31;4.00;;;2.33;;
7795;SDS011;3942;51.518;6.912;2022-11-15T17:37:33;4.50;;;2.25;;
7795;SDS011;3942;51.518;6.912;2022-11-15T17:42:35;3.97;;;1.85;;
7795;SDS011;3942;51.518;6.912;2022-11-15T17:47:41;3.33;;;1.73;;
7795;SDS011;3942;51.518;6.912;2022-11-15T17:52:43;3.58;;;1.92;;
7795;SDS011;3942;51.518;6.912;2022-11-15T17:57:45;5.05;;;2.50;;
7795;SDS011;3942;51.518;6.912;2022-11-15T18:02:48;4.20;;;1.83;;
7795;SDS011;3942;51.518;6.912;2022-11-15T18:07:50;2.80;;;1.58;;
7795;SDS011;3942;51.518;6.912;2022-11-15T18:12:53;3.45;;;1.88;;
7795;SDS011;3942;51.518;6.912;2022-11-15T18:17:56;3.08;;;2.10;;
7795;SDS011;3942;51.518;6.912;2022-11-15T18:22:58;3.35;;;1.75;;
7795;SDS011;3942;51.518;6.912;2022-11-15T18:28:00;5.63;;;2.40;;
7795;SDS011;3942;51.518;6.912;2022-11-15T18:33:04;3.85;;;2.00;;
7795;SDS011;3942;51.518;6.912;2022-11-15T18:38:06;2.92;;;1.80;;
7795;SDS011;3942;51.518;6.912;2022-11-15T18:43:08;3.10;;;2.30;;
7795;SDS011;3942;51.518;6.912;2022-11-15T18:48:11;3.92;;;2.45;;
7795;SDS011;3942;51.518;6.912;2022-11-15T18:53:14;3.33;;;1.70;;
7795;SDS011;3942;51.518;6.912;2022-11-15T19:03:49;4.22;;;2.22;;
7795;SDS011;3942;51.518;6.912;2022-11-15T19:08:52;7.13;;;3.25;;
7795;SDS011;3942;51.518;6.912;2022-11-15T19:13:55;4.97;;;2.20;;
7795;SDS011;3942;51.518;6.912;2022-11-15T19:19:00;4.43;;;2.47;;
7795;SDS011;3942;51.518;6.912;2022-11-15T19:24:03;4.95;;;2.70;;
7795;SDS011;3942;51.518;6.912;2022-11-15T19:29:06;3.88;;;2.22;;
7795;SDS011;3942;51.518;6.912;2022-11-15T19:34:11;3.33;;;2.53;;
7795;SDS011;3942;51.518;6.912;2022-11-15T19:39:13;3.65;;;2.50;;
7795;SDS011;3942;51.518;6.912;2022-11-15T19:44:17;4.60;;;2.67;;
7795;SDS011;3942;51.518;6.912;2022-11-15T19:49:22;5.25;;;2.75;;
7795;SDS011;3942;51.518;6.912;2022-11-15T19:54:25;8.38;;;3.25;;
7795;SDS011;3942;51.518;6.912;2022-11-15T19:59:27;4.72;;;2.85;;
7795;SDS011;3942;51.518;6.912;2022-11-15T20:04:30;7.72;;;3.25;;
7795;SDS011;3942;51.518;6.912;2022-11-15T20:09:32;4.35;;;2.63;;
7795;SDS011;3942;51.518;6.912;2022-11-15T20:14:34;6.88;;;3.38;;
7795;SDS011;3942;51.518;6.912;2022-11-15T20:19:38;4.63;;;3.05;;
7795;SDS011;3942;51.518;6.912;2022-11-15T20:24:40;3.85;;;3.22;;
7795;SDS011;3942;51.518;6.912;2022-11-15T20:29:42;6.75;;;3.20;;
7795;SDS011;3942;51.518;6.912;2022-11-15T20:34:46;6.35;;;3.25;;
7795;SDS011;3942;51.518;6.912;2022-11-15T20:39:48;4.68;;;3.13;;
7795;SDS011;3942;51.518;6.912;2022-11-15T20:44:50;6.07;;;3.25;;
7795;SDS011;3942;51.518;6.912;2022-11-15T20:49:53;4.90;;;3.40;;
7795;SDS011;3942;51.518;6.912;2022-11-15T20:54:55;4.05;;;3.40;;
7795;SDS011;3942;51.518;6.912;2022-11-15T20:59:57;4.93;;;3.67;;
7795;SDS011;3942;51.518;6.912;2022-11-15T21:05:01;5.82;;;3.58;;
7795;SDS011;3942;51.518;6.912;2022-11-15T21:10:03;4.32;;;3.33;;
7795;SDS011;3942;51.518;6.912;2022-11-15T21:15:22;6.63;;;3.63;;
7795;SDS011;3942;51.518;6.912;2022-11-15T21:20:26;5.90;;;3.90;;
7795;SDS011;3942;51.518;6.912;2022-11-15T21:25:28;5.10;;;3.40;;
7795;SDS011;3942;51.518;6.912;2022-11-15T21:30:30;5.90;;;3.22;;
7795;SDS011;3942;51.518;6.912;2022-11-15T21:35:34;5.97;;;3.20;;
7795;SDS011;3942;51.518;6.912;2022-11-15T21:40:36;5.05;;;3.50;;
7795;SDS011;3942;51.518;6.912;2022-11-15T21:45:39;4.90;;;3.28;;
7795;SDS011;3942;51.518;6.912;2022-11-15T21:50:42;4.88;;;3.25;;
7795;SDS011;3942;51.518;6.912;2022-11-15T21:55:45;6.25;;;3.38;;
7795;SDS011;3942;51.518;6.912;2022-11-15T22:00:47;7.20;;;3.88;;
7795;SDS011;3942;51.518;6.912;2022-11-15T22:06:08;5.38;;;3.65;;
7795;SDS011;3942;51.518;6.912;2022-11-15T22:11:10;6.95;;;4.15;;
7795;SDS011;3942;51.518;6.912;2022-11-15T22:16:13;6.28;;;3.92;;
7795;SDS011;3942;51.518;6.912;2022-11-15T22:21:16;7.00;;;3.78;;
7795;SDS011;3942;51.518;6.912;2022-11-15T22:26:19;5.68;;;3.72;;
7795;SDS011;3942;51.518;6.912;2022-11-15T22:31:21;4.75;;;3.22;;
7795;SDS011;3942;51.518;6.912;2022-11-15T22:36:24;7.43;;;3.55;;
7795;SDS011;3942;51.518;6.912;2022-11-15T22:41:26;6.40;;;3.40;;
7795;SDS011;3942;51.518;6.912;2022-11-15T22:46:29;6.47;;;3.53;;
7795;SDS011;3942;51.518;6.912;2022-11-15T22:51:32;4.97;;;3.60;;
7795;SDS011;3942;51.518;6.912;2022-11-15T22:56:34;4.70;;;3.22;;
7795;SDS011;3942;51.518;6.912;2022-11-15T23:01:36;6.03;;;3.85;;
7795;SDS011;3942;51.518;6.912;2022-11-15T23:06:40;6.65;;;3.42;;
7795;SDS011;3942;51.518;6.912;2022-11-15T23:11:42;4.32;;;3.08;;
7795;SDS011;3942;51.518;6.912;2022-11-15T23:17:01;5.70;;;3.30;;
7795;SDS011;3942;51.518;6.912;2022-11-15T23:22:04;6.97;;;3.50;;
7795;SDS011;3942;51.518;6.912;2022-11-15T23:27:23;4.85;;;3.20;;
7795;SDS011;3942;51.518;6.912;2022-11-15T23:32:26;7.55;;;5.10;;
7795;SDS011;3942;51.518;6.912;2022-11-15T23:37:47;4.80;;;3.60;;
7795;SDS011;3942;51.518;6.912;2022-11-15T23:42:49;6.88;;;3.42;;
7795;SDS011;3942;51.518;6.912;2022-11-15T23:47:51;8.50;;;3.90;;
7795;SDS011;3942;51.518;6.912;2022-11-15T23:52:54;6.05;;;3.65;;
7795;SDS011;3942;51.518;6.912;2022-11-15T23:57:56;4.68;;;3.72;;
